createdAt,value
2023-04-27T00:00:29.084Z,39.4091
2023-04-27T00:01:32.961Z,39.0848
2023-04-27T00:02:36.943Z,38.7885
2023-04-27T00:03:41.336Z,37.1788
2023-04-27T00:04:45.464Z,37.4189
2023-04-27T00:05:49.538Z,39.7587
2023-04-27T00:06:53.455Z,39.4632
2023-04-27T00:07:57.365Z,39.1567
2023-04-27T00:09:01.292Z,38.8377
2023-04-27T00:10:05.162Z,37.3797
2023-04-27T00:11:09.071Z,36.1758
2023-04-27T00:12:12.953Z,39.6964
2023-04-27T00:13:17.135Z,39.4889
2023-04-27T00:14:21.031Z,39.1514
2023-04-27T00:15:25.265Z,38.8242
2023-04-27T00:16:29.180Z,37.8863
2023-04-27T00:17:33.093Z,35.5264
2023-04-27T00:18:36.950Z,39.3412
2023-04-27T00:19:40.927Z,39.6614
2023-04-27T00:20:44.794Z,39.3742
2023-04-27T00:21:48.662Z,39.0710
2023-04-27T00:22:52.574Z,38.4935
2023-04-27T00:23:56.455Z,37.1152
2023-04-27T00:25:00.352Z,39.6250
2023-04-27T00:26:04.291Z,39.4806
2023-04-27T00:27:08.155Z,39.1963
2023-04-27T00:28:12.254Z,38.9046
2023-04-27T00:29:16.159Z,38.2801
2023-04-27T00:30:20.282Z,35.1679
2023-04-27T00:31:24.226Z,38.5417
2023-04-27T00:32:28.183Z,39.7820
2023-04-27T00:33:32.070Z,39.4727
2023-04-27T00:34:35.955Z,39.1677
2023-04-27T00:35:39.869Z,38.8067
2023-04-27T00:36:43.766Z,36.6311
2023-04-27T00:37:47.666Z,39.2727
2023-04-27T00:38:51.582Z,39.6478
2023-04-27T00:39:55.694Z,39.3403
2023-04-27T00:40:59.608Z,39.0260
2023-04-27T00:42:03.499Z,38.6583
2023-04-27T00:43:07.404Z,36.6982
2023-04-27T00:44:11.287Z,39.2923
2023-04-27T00:45:15.232Z,39.7052
2023-04-27T00:46:19.313Z,39.4873
2023-04-27T00:47:23.215Z,39.1698
2023-04-27T00:48:27.078Z,38.8154
2023-04-27T00:49:30.983Z,36.2222
2023-04-27T00:50:34.871Z,38.6086
2023-04-27T00:51:38.799Z,39.7273
2023-04-27T00:52:42.679Z,39.3318
2023-04-27T00:53:46.581Z,39.0062
2023-04-27T00:54:50.702Z,38.6932
2023-04-27T00:55:54.593Z,35.9805
2023-04-27T00:56:58.487Z,35.1599
2023-04-27T00:58:02.423Z,39.7435
2023-04-27T00:59:06.303Z,39.8145
2023-04-27T01:00:10.204Z,39.4426
2023-04-27T01:01:14.093Z,39.1018
2023-04-27T01:02:18.036Z,37.9623
2023-04-27T01:03:22.054Z,36.4569
2023-04-27T01:04:26.120Z,39.8431
2023-04-27T01:05:31.995Z,39.6951
2023-04-27T01:06:31.150Z,39.3648
2023-04-27T01:07:35.068Z,39.0799
2023-04-27T01:08:38.947Z,38.3265
2023-04-27T01:09:42.954Z,34.9069
2023-04-27T01:10:46.847Z,38.4691
2023-04-27T01:11:50.845Z,39.9939
2023-04-27T01:12:54.745Z,39.5727
2023-04-27T01:13:58.632Z,39.2258
2023-04-27T01:15:02.547Z,38.8587
2023-04-27T01:16:06.432Z,35.7058
2023-04-27T01:17:10.387Z,36.9073
2023-04-27T01:18:14.330Z,40.0883
2023-04-27T01:19:18.220Z,39.7603
2023-04-27T01:20:22.109Z,39.4009
2023-04-27T01:21:26.017Z,39.1017
2023-04-27T01:22:29.992Z,37.1510
2023-04-27T01:23:33.854Z,37.1708
2023-04-27T01:24:37.745Z,40.0181
2023-04-27T01:25:41.669Z,39.6960
2023-04-27T01:26:45.541Z,39.3707
2023-04-27T01:27:49.687Z,39.0526
2023-04-27T01:28:53.640Z,37.6074
2023-04-27T01:29:57.520Z,35.6216
2023-04-27T01:31:01.426Z,39.8234
2023-04-27T01:32:05.312Z,39.9574
2023-04-27T01:33:09.269Z,39.6229
2023-04-27T01:34:13.175Z,39.2975
2023-04-27T01:35:17.097Z,38.4907
2023-04-27T01:36:21.182Z,36.5222
2023-04-27T01:37:25.404Z,39.8795
2023-04-27T01:38:29.286Z,39.8654
2023-04-27T01:39:33.194Z,39.5173
2023-04-27T01:40:37.115Z,39.2062
2023-04-27T01:41:41.000Z,38.5283
2023-04-27T01:42:44.890Z,35.5120
2023-04-27T01:43:48.817Z,39.0081
2023-04-27T01:44:52.695Z,40.0285
2023-04-27T01:45:56.629Z,39.7021
2023-04-27T01:47:00.496Z,39.3754
2023-04-27T01:48:04.719Z,38.9886
2023-04-27T01:49:08.677Z,35.8201
2023-04-27T01:50:12.623Z,37.7416
2023-04-27T01:51:16.494Z,40.2482
2023-04-27T01:52:20.385Z,39.8969
2023-04-27T01:53:24.289Z,39.5372
2023-04-27T01:54:28.785Z,39.2276
2023-04-27T01:55:32.728Z,37.0224
2023-04-27T01:56:36.614Z,38.3347
2023-04-27T01:57:40.540Z,40.1555
2023-04-27T01:58:44.409Z,39.8501
2023-04-27T01:59:48.318Z,39.5447
2023-04-27T02:00:52.246Z,39.2312
2023-04-27T02:01:56.210Z,37.1816
2023-04-27T02:03:00.203Z,37.1538
2023-04-27T02:04:04.445Z,40.1783
2023-04-27T02:05:08.447Z,39.9034
2023-04-27T02:06:12.522Z,39.5891
2023-04-27T02:07:16.392Z,39.2782
2023-04-27T02:08:20.303Z,37.7309
2023-04-27T02:09:24.179Z,34.9321
2023-04-27T02:10:28.113Z,39.4770
2023-04-27T02:11:32.046Z,40.2198
2023-04-27T02:12:36.066Z,39.7868
2023-04-27T02:13:39.965Z,39.4271
2023-04-27T02:14:43.857Z,38.8134
2023-04-27T02:15:47.772Z,36.2342
2023-04-27T02:16:51.661Z,39.7015
2023-04-27T02:17:55.659Z,40.0914
2023-04-27T02:18:59.623Z,39.7892
2023-04-27T02:20:03.506Z,39.4694
2023-04-27T02:21:07.393Z,38.9650
2023-04-27T02:22:11.285Z,35.9404
2023-04-27T02:23:15.208Z,38.8692
2023-04-27T02:24:19.076Z,40.2453
2023-04-27T02:25:23.005Z,39.9283
2023-04-27T02:26:26.885Z,39.6193
2023-04-27T02:27:30.800Z,39.2867
2023-04-27T02:28:35.100Z,36.1411
2023-04-27T02:29:39.507Z,36.3777
2023-04-27T02:30:43.925Z,40.3931
2023-04-27T02:31:47.911Z,40.1340
2023-04-27T02:32:51.852Z,39.7549
2023-04-27T02:33:55.757Z,39.4194
2023-04-27T02:34:59.639Z,37.7647
2023-04-27T02:36:03.538Z,37.8457
2023-04-27T02:37:07.416Z,40.3315
2023-04-27T02:38:11.360Z,40.1126
2023-04-27T02:39:15.529Z,39.8345
2023-04-27T02:40:19.646Z,39.5294
2023-04-27T02:41:23.524Z,38.0121
2023-04-27T02:42:27.959Z,38.0692
2023-04-27T02:43:31.856Z,40.3123
2023-04-27T02:44:35.800Z,40.0145
2023-04-27T02:45:39.719Z,39.7188
2023-04-27T02:46:43.613Z,39.3977
2023-04-27T02:47:47.632Z,37.9007
2023-04-27T02:48:51.498Z,36.4287
2023-04-27T02:49:55.412Z,40.1549
2023-04-27T02:50:59.331Z,40.1216
2023-04-27T02:52:03.229Z,39.7884
2023-04-27T02:53:07.098Z,39.4802
2023-04-27T02:54:11.016Z,38.5086
2023-04-27T02:55:14.899Z,36.1955
2023-04-27T02:56:19.021Z,40.0085
2023-04-27T02:57:22.964Z,40.1731
2023-04-27T02:58:26.842Z,39.8468
2023-04-27T02:59:30.940Z,39.5390
2023-04-27T03:00:34.896Z,38.8617
2023-04-27T03:01:39.193Z,36.7764
2023-04-27T03:02:43.245Z,40.1268
2023-04-27T03:03:47.263Z,40.1746
2023-04-27T03:04:51.385Z,39.8554
2023-04-27T03:05:55.346Z,39.5269
2023-04-27T03:06:59.251Z,38.9070
2023-04-27T03:08:03.125Z,35.7637
2023-04-27T03:09:07.046Z,39.1613
2023-04-27T03:10:10.939Z,40.3404
2023-04-27T03:11:14.852Z,39.9851
2023-04-27T03:12:18.974Z,39.6403
2023-04-27T03:13:22.879Z,39.2384
2023-04-27T03:14:27.039Z,35.9364
2023-04-27T03:15:30.965Z,37.1991
2023-04-27T03:16:34.855Z,40.4402
2023-04-27T03:17:38.793Z,40.1983
2023-04-27T03:18:42.669Z,39.8621
2023-04-27T03:19:46.573Z,39.5835
2023-04-27T03:20:50.462Z,37.3927
2023-04-27T03:21:54.396Z,36.6486
2023-04-27T03:22:58.268Z,40.4205
2023-04-27T03:24:02.182Z,40.2406
2023-04-27T03:25:06.070Z,39.9080
2023-04-27T03:26:09.977Z,39.5828
2023-04-27T03:27:13.891Z,38.2374
2023-04-27T03:28:17.791Z,35.8304
2023-04-27T03:29:21.678Z,40.0756
2023-04-27T03:30:25.582Z,40.3628
2023-04-27T03:31:29.487Z,39.9862
2023-04-27T03:32:33.420Z,39.6484
2023-04-27T03:33:37.341Z,38.8527
2023-04-27T03:34:41.229Z,35.3973
2023-04-27T03:35:45.113Z,38.9757
2023-04-27T03:36:49.029Z,40.5181
2023-04-27T03:37:52.931Z,40.1286
2023-04-27T03:38:56.809Z,39.7775
2023-04-27T03:40:00.778Z,39.3799
2023-04-27T03:41:04.650Z,35.8833
2023-04-27T03:42:08.564Z,36.6863
2023-04-27T03:43:12.455Z,40.6272
2023-04-27T03:44:16.369Z,40.4221
2023-04-27T03:45:20.245Z,40.0692
2023-04-27T03:46:24.234Z,39.7340
2023-04-27T03:47:28.172Z,37.9871
2023-04-27T03:48:32.064Z,38.9795
2023-04-27T03:49:35.918Z,40.4508
2023-04-27T03:50:39.823Z,40.1705
2023-04-27T03:51:43.714Z,39.8628
2023-04-27T03:52:47.669Z,39.5663
2023-04-27T03:53:51.548Z,37.4738
2023-04-27T03:54:55.452Z,37.2419
2023-04-27T03:55:59.342Z,40.5619
2023-04-27T03:57:03.248Z,40.3637
2023-04-27T03:58:07.299Z,40.0782
2023-04-27T03:59:11.406Z,39.7486
2023-04-27T04:00:15.325Z,38.2496
2023-04-27T04:01:19.213Z,37.2726
2023-04-27T04:02:23.174Z,40.5348
2023-04-27T04:03:27.385Z,40.3071
2023-04-27T04:04:31.797Z,39.9656
2023-04-27T04:05:35.840Z,39.6489
2023-04-27T04:06:39.750Z,38.3828
2023-04-27T04:07:43.647Z,35.7671
2023-04-27T04:08:47.555Z,39.9904
2023-04-27T04:09:51.431Z,40.5621
2023-04-27T04:10:55.356Z,40.2434
2023-04-27T04:11:59.238Z,39.9195
2023-04-27T04:13:03.133Z,39.2321
2023-04-27T04:14:07.049Z,38.5160
2023-04-27T04:15:10.943Z,40.4685
2023-04-27T04:16:14.887Z,40.2369
2023-04-27T04:17:18.797Z,39.9405
2023-04-27T04:18:22.673Z,39.6121
2023-04-27T04:19:26.881Z,38.6258
2023-04-27T04:20:30.745Z,34.5561
2023-04-27T04:21:34.669Z,37.9880
2023-04-27T04:22:38.589Z,40.8229
2023-04-27T04:23:42.492Z,40.4532
2023-04-27T04:24:46.399Z,40.0927
2023-04-27T04:25:50.344Z,39.7214
2023-04-27T04:26:54.197Z,36.7317
2023-04-27T04:27:58.092Z,38.5239
2023-04-27T04:29:02.298Z,40.6944
2023-04-27T04:30:06.355Z,40.3556
2023-04-27T04:31:10.335Z,40.0220
2023-04-27T04:32:14.229Z,39.7102
2023-04-27T04:33:18.133Z,37.1389
2023-04-27T04:34:22.033Z,37.2059
2023-04-27T04:35:25.924Z,40.7314
2023-04-27T04:36:29.834Z,40.5159
2023-04-27T04:37:33.719Z,40.1661
2023-04-27T04:38:37.614Z,39.8229
2023-04-27T04:39:41.544Z,38.1676
2023-04-27T04:40:46.198Z,36.6308
2023-04-27T04:41:50.071Z,40.5928
2023-04-27T04:42:53.950Z,40.5259
2023-04-27T04:43:58.105Z,40.1797
2023-04-27T04:45:02.009Z,39.8678
2023-04-27T04:46:06.020Z,38.7299
2023-04-27T04:47:10.154Z,35.6613
2023-04-27T04:48:14.037Z,39.8982
2023-04-27T04:49:17.957Z,40.7308
2023-04-27T04:50:21.849Z,40.3493
2023-04-27T04:51:25.779Z,40.0192
2023-04-27T04:52:29.699Z,39.4103
2023-04-27T04:53:33.597Z,36.2717
2023-04-27T04:54:37.473Z,39.6805
2023-04-27T04:55:41.379Z,40.7646
2023-04-27T04:56:45.272Z,40.4574
2023-04-27T04:57:49.202Z,40.1628
2023-04-27T04:58:53.070Z,39.7285
2023-04-27T04:59:56.968Z,36.8519
2023-04-27T05:01:00.851Z,39.7052
2023-04-27T05:02:05.189Z,40.7276
2023-04-27T05:03:09.138Z,40.3857
2023-04-27T05:04:13.291Z,40.0654
2023-04-27T05:05:17.367Z,39.6880
2023-04-27T05:06:21.275Z,36.7243
2023-04-27T05:07:25.243Z,38.8139
2023-04-27T05:08:29.111Z,40.9180
2023-04-27T05:09:33.053Z,40.6480
2023-04-27T05:10:36.941Z,40.3253
2023-04-27T05:11:40.832Z,40.0150
2023-04-27T05:12:44.739Z,38.1579
2023-04-27T05:13:48.731Z,40.2355
2023-04-27T05:14:52.598Z,40.5661
2023-04-27T05:15:56.592Z,40.2732
2023-04-27T05:17:00.463Z,39.9586
2023-04-27T05:18:04.411Z,39.6142
2023-04-27T05:19:08.320Z,36.3761
2023-04-27T05:20:12.199Z,36.0158
2023-04-27T05:21:16.136Z,40.6884
2023-04-27T05:22:20.017Z,40.8604
2023-04-27T05:23:24.059Z,40.5061
2023-04-27T05:24:27.970Z,40.2020
2023-04-27T05:25:31.844Z,39.0981
2023-04-27T05:26:35.744Z,40.2765
2023-04-27T05:27:39.691Z,40.5530
2023-04-27T05:28:43.841Z,40.3114
2023-04-27T05:29:47.749Z,40.0206
2023-04-27T05:30:51.633Z,39.7172
2023-04-27T05:31:55.566Z,37.1536
2023-04-27T05:32:59.506Z,34.2920
2023-04-27T05:34:03.446Z,39.5585
2023-04-27T05:35:07.330Z,41.0212
2023-04-27T05:36:11.206Z,40.6128
2023-04-27T05:37:15.129Z,40.2672
2023-04-27T05:38:19.100Z,39.4853
2023-04-27T05:39:23.024Z,37.0393
2023-04-27T05:40:26.871Z,40.5576
2023-04-27T05:41:31.014Z,40.7387
2023-04-27T05:42:34.907Z,40.4826
2023-04-27T05:43:38.816Z,43.9538
2023-04-27T05:44:42.704Z,43.3873
2023-04-27T05:45:46.650Z,42.3635
2023-04-27T05:46:50.557Z,37.4471
2023-04-27T05:47:54.477Z,30.5018
2023-04-27T05:48:58.392Z,26.8687
2023-04-27T05:50:02.322Z,27.8562
2023-04-27T05:51:06.188Z,35.8644
2023-04-27T05:52:10.114Z,43.3448
2023-04-27T05:53:13.992Z,49.5773
2023-04-27T05:54:17.977Z,54.6035
2023-04-27T05:55:21.829Z,52.0354
2023-04-27T05:56:25.753Z,51.3153
2023-04-27T05:57:29.670Z,55.8167
2023-04-27T05:58:33.613Z,59.3655
2023-04-27T05:59:37.505Z,61.3763
2023-04-27T06:00:41.398Z,60.3499
2023-04-27T06:01:45.301Z,48.0493
2023-04-27T06:02:49.383Z,42.4334
2023-04-27T06:03:53.504Z,48.0372
2023-04-27T06:04:57.506Z,53.8448
2023-04-27T06:06:01.399Z,58.3447
2023-04-27T06:07:05.313Z,60.6295
2023-04-27T06:08:09.211Z,52.9566
2023-04-27T06:09:13.243Z,43.5240
2023-04-27T06:10:17.275Z,47.6714
2023-04-27T06:11:21.421Z,53.4779
2023-04-27T06:12:25.335Z,58.0279
2023-04-27T06:13:29.253Z,60.1870
2023-04-27T06:14:33.207Z,55.5773
2023-04-27T06:15:37.110Z,45.6580
2023-04-27T06:16:41.017Z,49.2994
2023-04-27T06:17:44.924Z,54.8372
2023-04-27T06:18:48.825Z,58.8201
2023-04-27T06:19:52.726Z,59.8344
2023-04-27T06:20:56.625Z,55.4937
2023-04-27T06:22:00.538Z,45.1387
2023-04-27T06:23:04.410Z,47.8884
2023-04-27T06:24:08.283Z,53.6306
2023-04-27T06:25:12.183Z,57.8737
2023-04-27T06:26:16.062Z,59.1923
2023-04-27T06:27:20.000Z,55.9366
2023-04-27T06:28:23.889Z,44.1893
2023-04-27T06:29:27.764Z,42.7859
2023-04-27T06:30:31.642Z,49.0737
2023-04-27T06:31:35.601Z,54.5663
2023-04-27T06:32:39.484Z,58.1539
2023-04-27T06:33:43.380Z,58.2237
2023-04-27T06:34:47.430Z,48.8106
2023-04-27T06:35:51.319Z,44.4678
2023-04-27T06:36:55.217Z,50.1073
2023-04-27T06:37:59.185Z,55.2882
2023-04-27T06:39:03.142Z,58.1652
2023-04-27T06:40:07.101Z,57.8815
2023-04-27T06:41:10.980Z,50.0806
2023-04-27T06:42:14.878Z,41.5136
2023-04-27T06:43:18.779Z,45.8917
2023-04-27T06:44:22.938Z,51.9072
2023-04-27T06:45:26.868Z,56.3316
2023-04-27T06:46:30.789Z,57.8561
2023-04-27T06:47:34.788Z,53.9777
2023-04-27T06:48:38.664Z,42.8215
2023-04-27T06:49:42.563Z,43.5267
2023-04-27T06:50:46.482Z,49.8056
2023-04-27T06:51:50.394Z,54.9274
2023-04-27T06:52:54.317Z,57.5965
2023-04-27T06:53:58.199Z,56.4612
2023-04-27T06:55:02.100Z,47.1134
2023-04-27T06:56:06.012Z,47.1558
2023-04-27T06:57:09.932Z,52.9120
2023-04-27T06:58:13.911Z,56.7907
2023-04-27T06:59:17.784Z,57.2244
2023-04-27T07:00:21.702Z,55.6995
2023-04-27T07:01:25.648Z,45.8205
2023-04-27T07:02:29.551Z,42.6833
2023-04-27T07:03:33.599Z,48.8612
2023-04-27T07:04:37.575Z,54.2981
2023-04-27T07:05:41.515Z,56.9992
2023-04-27T07:06:45.442Z,56.6140
2023-04-27T07:07:49.343Z,49.3972
2023-04-27T07:08:53.233Z,44.8208
2023-04-27T07:09:57.319Z,50.3225
2023-04-27T07:11:01.205Z,55.0635
2023-04-27T07:12:05.094Z,56.5121
2023-04-27T07:13:09.579Z,55.8997
2023-04-27T07:14:13.893Z,49.0851
2023-04-27T07:15:17.811Z,40.3679
2023-04-27T07:16:21.784Z,44.5337
2023-04-27T07:17:25.665Z,50.8441
2023-04-27T07:18:29.506Z,55.2690
2023-04-27T07:19:33.406Z,56.4106
2023-04-27T07:20:37.285Z,53.5762
2023-04-27T07:21:41.302Z,43.6150
2023-04-27T07:22:45.192Z,44.8265
2023-04-27T07:23:49.092Z,50.8761
2023-04-27T07:24:53.021Z,55.2022
2023-04-27T07:25:56.914Z,56.0410
2023-04-27T07:27:00.826Z,54.4320
2023-04-27T07:28:04.713Z,44.5585
2023-04-27T07:29:22.975Z,40.9646
2023-04-27T07:30:13.157Z,47.3845
2023-04-27T07:31:17.121Z,52.7219
2023-04-27T07:32:21.043Z,55.7568
2023-04-27T07:33:24.947Z,55.6105
2023-04-27T07:34:32.897Z,49.1370
2023-04-27T07:35:33.619Z,41.1194
2023-04-27T07:36:37.521Z,45.8290
2023-04-27T07:37:41.437Z,51.7501
2023-04-27T07:38:45.352Z,55.3787
2023-04-27T07:39:49.293Z,55.5869
2023-04-27T07:40:53.197Z,51.9979
2023-04-27T07:41:57.147Z,42.9031
2023-04-27T07:43:01.032Z,45.9695
2023-04-27T07:44:04.933Z,51.8725
2023-04-27T07:45:08.823Z,55.2935
2023-04-27T07:46:12.748Z,55.3445
2023-04-27T07:47:16.716Z,53.1055
2023-04-27T07:48:20.680Z,43.3980
2023-04-27T07:49:24.555Z,43.7682
2023-04-27T07:50:28.454Z,49.9833
2023-04-27T07:51:32.337Z,54.4135
2023-04-27T07:52:36.222Z,55.2901
2023-04-27T07:53:40.104Z,54.1649
2023-04-27T07:54:44.053Z,45.5130
2023-04-27T07:55:47.955Z,42.3556
2023-04-27T07:56:51.865Z,48.4179
2023-04-27T07:57:55.761Z,53.5309
2023-04-27T07:58:59.644Z,55.2634
2023-04-27T08:00:03.529Z,54.6652
2023-04-27T08:01:07.532Z,48.2037
2023-04-27T08:02:19.534Z,42.4076
2023-04-27T08:03:16.053Z,48.0473
2023-04-27T08:04:20.628Z,53.1203
2023-04-27T08:05:24.796Z,55.0125
2023-04-27T08:06:29.699Z,54.5254
2023-04-27T08:07:35.507Z,49.4373
2023-04-27T08:08:36.839Z,42.8113
2023-04-27T08:09:40.736Z,47.7642
2023-04-27T08:10:44.644Z,53.0898
2023-04-27T08:11:48.552Z,54.8631
2023-04-27T08:12:52.458Z,54.3737
2023-04-27T08:13:56.407Z,50.5502
2023-04-27T08:15:00.311Z,43.2110
2023-04-27T08:16:04.219Z,47.5217
2023-04-27T08:17:08.146Z,52.8197
2023-04-27T08:18:12.116Z,54.5329
2023-04-27T08:19:16.384Z,54.0691
2023-04-27T08:20:20.332Z,50.8649
2023-04-27T08:21:24.201Z,41.9028
2023-04-27T08:22:28.087Z,44.3729
2023-04-27T08:23:31.999Z,50.5015
2023-04-27T08:24:35.975Z,54.0967
2023-04-27T08:25:39.875Z,54.2244
2023-04-27T08:26:43.813Z,52.6292
2023-04-27T08:27:47.705Z,43.6518
2023-04-27T08:28:51.614Z,43.1269
2023-04-27T08:29:55.542Z,49.2630
2023-04-27T08:30:59.480Z,53.5779
2023-04-27T08:32:03.394Z,54.1845
2023-04-27T08:33:07.355Z,53.3419
2023-04-27T08:34:11.564Z,45.6296
2023-04-27T08:35:15.485Z,41.1246
2023-04-27T08:36:19.358Z,46.9261
2023-04-27T08:37:23.283Z,52.2488
2023-04-27T08:38:27.228Z,54.1589
2023-04-27T08:39:31.149Z,53.6803
2023-04-27T08:40:35.059Z,48.7104
2023-04-27T08:41:38.974Z,40.2027
2023-04-27T08:42:42.871Z,43.9278
2023-04-27T08:43:46.769Z,50.0829
2023-04-27T08:44:50.696Z,53.7792
2023-04-27T08:45:54.597Z,53.9761
2023-04-27T08:46:58.470Z,51.8410
2023-04-27T08:48:02.409Z,43.8210
2023-04-27T08:49:06.339Z,46.7154
2023-04-27T08:50:10.220Z,52.2076
2023-04-27T08:51:14.164Z,54.0550
2023-04-27T08:52:18.055Z,53.5912
2023-04-27T08:53:21.957Z,51.6921
2023-04-27T08:54:25.866Z,43.3646
2023-04-27T08:55:29.789Z,45.4144
2023-04-27T08:56:33.707Z,51.2624
2023-04-27T08:57:37.649Z,53.8025
2023-04-27T08:58:41.548Z,53.4482
2023-04-27T08:59:45.564Z,51.9922
2023-04-27T09:00:50.780Z,43.3464
2023-04-27T09:01:51.145Z,42.8345
2023-04-27T09:02:55.307Z,48.8937
2023-04-27T09:03:59.772Z,53.2305
2023-04-27T09:05:04.170Z,53.6579
2023-04-27T09:06:08.227Z,52.8800
2023-04-27T09:07:08.420Z,45.9385
2023-04-27T09:08:12.338Z,42.3747
2023-04-27T09:09:16.385Z,48.1457
2023-04-27T09:10:20.309Z,52.7869
2023-04-27T09:11:24.189Z,53.5118
2023-04-27T09:12:28.086Z,52.9644
2023-04-27T09:13:31.972Z,47.7553
2023-04-27T09:14:35.867Z,42.4288
2023-04-27T09:15:39.767Z,47.8107
2023-04-27T09:16:44.020Z,52.6028
2023-04-27T09:17:48.032Z,53.4204
2023-04-27T09:18:51.967Z,52.9018
2023-04-27T09:19:55.852Z,48.8177
2023-04-27T09:20:59.762Z,42.5395
2023-04-27T09:22:03.679Z,47.5266
2023-04-27T09:23:07.619Z,52.5394
2023-04-27T09:24:11.506Z,53.4312
2023-04-27T09:25:15.403Z,52.9341
2023-04-27T09:26:19.286Z,49.4708
2023-04-27T09:27:23.479Z,42.9089
2023-04-27T09:28:27.405Z,47.4242
2023-04-27T09:29:31.314Z,52.2877
2023-04-27T09:30:35.202Z,53.0966
2023-04-27T09:31:39.202Z,52.6007
2023-04-27T09:32:43.120Z,49.6869
2023-04-27T09:33:47.036Z,40.8835
2023-04-27T09:34:51.183Z,43.0379
2023-04-27T09:35:55.064Z,49.3816
2023-04-27T09:36:58.951Z,52.9666
2023-04-27T09:38:02.845Z,52.9514
2023-04-27T09:39:06.761Z,51.6560
2023-04-27T09:40:10.645Z,45.0282
2023-04-27T09:41:14.566Z,47.7020
2023-04-27T09:42:18.480Z,52.3144
2023-04-27T09:43:22.351Z,52.7640
2023-04-27T09:44:26.249Z,52.2882
2023-04-27T09:45:30.194Z,50.5828
2023-04-27T09:46:34.073Z,41.7849
2023-04-27T09:47:38.060Z,40.2299
2023-04-27T09:48:41.975Z,46.6933
2023-04-27T09:49:45.856Z,51.7551
2023-04-27T09:50:49.769Z,52.9352
2023-04-27T09:51:53.683Z,52.3804
2023-04-27T09:52:57.592Z,46.5345
2023-04-27T09:54:01.513Z,43.7883
2023-04-27T09:55:05.413Z,49.4765
2023-04-27T09:56:09.325Z,52.7004
2023-04-27T09:57:13.219Z,52.5124
2023-04-27T09:58:17.118Z,51.9611
2023-04-27T09:59:21.049Z,46.2955
2023-04-27T10:00:25.221Z,38.9751
2023-04-27T10:01:29.176Z,43.5155
2023-04-27T10:02:35.116Z,49.5129
2023-04-27T10:03:37.654Z,52.5907
2023-04-27T10:04:41.713Z,52.3186
2023-04-27T10:05:45.689Z,49.9566
2023-04-27T10:06:49.581Z,40.8717
2023-04-27T10:07:53.486Z,41.0721
2023-04-27T10:08:57.537Z,47.4436
2023-04-27T10:10:01.434Z,51.9858
2023-04-27T10:11:05.362Z,52.6684
2023-04-27T10:12:09.265Z,51.8904
2023-04-27T10:13:13.160Z,44.8836
2023-04-27T10:14:17.071Z,42.1844
2023-04-27T10:15:20.988Z,48.0901
2023-04-27T10:16:25.016Z,52.2568
2023-04-27T10:17:25.297Z,52.5255
2023-04-27T10:18:29.193Z,52.0119
2023-04-27T10:19:33.085Z,46.8915
2023-04-27T10:20:37.006Z,42.1257
2023-04-27T10:21:40.912Z,47.5419
2023-04-27T10:22:44.814Z,51.9970
2023-04-27T10:23:48.745Z,52.4113
2023-04-27T10:24:52.656Z,51.9140
2023-04-27T10:25:56.540Z,47.8509
2023-04-27T10:27:00.707Z,41.4777
2023-04-27T10:28:04.617Z,46.3296
2023-04-27T10:29:08.773Z,51.3889
2023-04-27T10:30:12.703Z,52.4267
2023-04-27T10:31:16.654Z,51.9377
2023-04-27T10:32:20.543Z,49.0285
2023-04-27T10:33:24.429Z,43.6722
2023-04-27T10:34:28.336Z,48.4900
2023-04-27T10:35:32.257Z,52.1183
2023-04-27T10:36:36.188Z,52.0405
2023-04-27T10:37:40.090Z,51.5905
2023-04-27T10:38:43.999Z,48.3634
2023-04-27T10:39:49.588Z,41.4841
2023-04-27T10:40:49.014Z,45.7174
2023-04-27T10:41:52.913Z,50.7861
2023-04-27T10:42:56.862Z,52.0832
2023-04-27T10:44:00.758Z,51.6469
2023-04-27T10:45:04.648Z,49.6904
2023-04-27T10:46:08.596Z,42.0606
2023-04-27T10:47:12.747Z,44.7027
2023-04-27T10:48:16.632Z,50.2782
2023-04-27T10:49:20.572Z,51.9156
2023-04-27T10:50:24.436Z,51.4697
2023-04-27T10:51:28.348Z,50.0422
2023-04-27T10:52:32.271Z,42.2479
2023-04-27T10:53:36.179Z,42.9337
2023-04-27T10:54:40.119Z,48.9384
2023-04-27T10:55:44.027Z,51.8798
2023-04-27T10:56:47.938Z,51.6252
2023-04-27T10:57:51.835Z,50.8357
2023-04-27T10:58:55.722Z,43.9112
2023-04-27T10:59:59.612Z,42.9918
2023-04-27T11:01:03.565Z,48.9166
2023-04-27T11:02:07.482Z,51.8091
2023-04-27T11:03:11.619Z,51.5317
2023-04-27T11:04:15.822Z,50.9196
2023-04-27T11:05:19.961Z,44.6976
2023-04-27T11:06:23.841Z,42.5429
2023-04-27T11:07:27.877Z,48.3351
2023-04-27T11:08:31.798Z,51.6036
2023-04-27T11:09:35.748Z,51.4453
2023-04-27T11:10:39.640Z,50.9254
2023-04-27T11:11:43.578Z,45.4995
2023-04-27T11:12:47.472Z,40.1274
2023-04-27T11:13:51.413Z,45.5276
2023-04-27T11:14:55.313Z,50.5503
2023-04-27T11:15:59.258Z,51.5137
2023-04-27T11:17:03.109Z,51.0099
2023-04-27T11:18:07.049Z,47.8329
2023-04-27T11:19:10.989Z,40.1272
2023-04-27T11:20:14.917Z,43.5575
2023-04-27T11:21:19.081Z,49.4966
2023-04-27T11:22:23.005Z,51.7554
2023-04-27T11:23:26.867Z,51.3835
2023-04-27T11:24:30.776Z,49.7896
2023-04-27T11:25:34.730Z,43.0937
2023-04-27T11:26:38.611Z,46.2163
2023-04-27T11:27:42.512Z,50.9177
2023-04-27T11:28:46.746Z,51.3936
2023-04-27T11:29:50.645Z,50.9293
2023-04-27T11:30:54.573Z,49.2841
2023-04-27T11:31:58.776Z,41.5258
2023-04-27T11:33:02.760Z,42.8137
2023-04-27T11:34:07.816Z,48.8242
2023-04-27T11:35:11.794Z,51.3850
2023-04-27T11:36:15.689Z,51.0262
2023-04-27T11:37:19.572Z,50.0866
2023-04-27T11:38:23.569Z,42.6885
2023-04-27T11:39:27.492Z,39.3494
2023-04-27T11:40:31.393Z,45.5312
2023-04-27T11:41:35.325Z,50.5557
2023-04-27T11:42:39.219Z,51.4476
2023-04-27T11:43:43.121Z,50.9477
2023-04-27T11:44:47.074Z,46.6282
2023-04-27T11:45:50.937Z,40.5219
2023-04-27T11:46:54.917Z,45.4576
2023-04-27T11:47:58.847Z,50.4398
2023-04-27T11:49:02.986Z,51.2824
2023-04-27T11:50:06.879Z,50.7731
2023-04-27T11:51:10.816Z,48.0137
2023-04-27T11:52:14.715Z,39.6653
2023-04-27T11:53:18.941Z,41.6175
2023-04-27T11:54:22.991Z,47.9688
2023-04-27T11:55:26.914Z,51.3344
2023-04-27T11:56:30.823Z,51.1603
2023-04-27T11:57:34.756Z,50.1502
2023-04-27T11:58:38.681Z,42.8177
2023-04-27T11:59:42.559Z,41.1517
2023-04-27T12:00:46.462Z,47.3028
2023-04-27T12:01:50.607Z,51.2119
2023-04-27T12:02:54.665Z,51.2204
2023-04-27T12:04:02.145Z,50.6423
2023-04-27T12:05:01.183Z,44.9879
2023-04-27T12:06:21.504Z,41.3207
2023-04-27T12:07:09.755Z,47.3328
2023-04-27T12:08:13.664Z,50.9961
2023-04-27T12:09:17.577Z,51.0063
2023-04-27T12:10:21.514Z,50.4880
2023-04-27T12:11:25.484Z,46.4925
2023-04-27T12:12:29.399Z,40.0544
2023-04-27T12:13:33.318Z,44.9552
2023-04-27T12:14:37.221Z,50.2282
2023-04-27T12:15:41.134Z,51.2547
2023-04-27T12:16:45.090Z,50.7626
2023-04-27T12:17:49.050Z,48.4292
2023-04-27T12:18:52.971Z,40.9416
2023-04-27T12:19:56.904Z,44.0748
2023-04-27T12:21:02.983Z,49.7072
2023-04-27T12:22:01.888Z,51.2637
2023-04-27T12:23:05.842Z,50.7885
2023-04-27T12:24:09.729Z,49.5728
2023-04-27T12:25:13.613Z,42.0109
2023-04-27T12:26:17.522Z,41.7994
2023-04-27T12:27:21.411Z,47.9120
2023-04-27T12:28:25.326Z,51.0195
2023-04-27T12:29:29.276Z,50.7381
2023-04-27T12:30:33.154Z,50.0951
2023-04-27T12:31:37.071Z,43.9556
2023-04-27T12:32:40.970Z,39.3313
2023-04-27T12:33:45.119Z,45.1528
2023-04-27T12:34:49.020Z,50.1466
2023-04-27T12:35:53.195Z,50.9558
2023-04-27T12:36:57.074Z,50.4420
2023-04-27T12:38:00.959Z,47.1052
2023-04-27T12:39:04.876Z,39.4557
2023-04-27T12:40:08.754Z,43.0094
2023-04-27T12:41:12.636Z,48.8991
2023-04-27T12:42:16.568Z,51.0773
2023-04-27T12:43:20.429Z,50.6460
2023-04-27T12:44:24.315Z,49.1814
2023-04-27T12:45:28.199Z,41.4211
2023-04-27T12:46:32.137Z,41.8193
2023-04-27T12:48:37.559Z,51.0917
2023-04-27T12:49:41.420Z,50.8188
2023-04-27T12:50:45.315Z,50.1414
2023-04-27T12:51:49.207Z,44.0231
2023-04-27T12:52:53.100Z,41.3651
2023-04-27T12:53:58.725Z,47.2553